sensor_id;sensor_type;location;lat;lon;timestamp;P1;durP1;ratioP1;P2;durP2;ratioP2
7160;SDS011;3622;53.576;9.978;2023-04-25T00:00:25;10.27;;;6.70;;
7160;SDS011;3622;53.576;9.978;2023-04-25T00:02:51;9.73;;;5.50;;
7160;SDS011;3622;53.576;9.978;2023-04-25T00:05:17;8.27;;;4.30;;
7160;SDS011;3622;53.576;9.978;2023-04-25T00:07:44;8.40;;;4.67;;
7160;SDS011;3622;53.576;9.978;2023-04-25T00:10:10;10.93;;;3.97;;
7160;SDS011;3622;53.576;9.978;2023-04-25T00:12:37;16.33;;;4.83;;
7160;SDS011;3622;53.576;9.978;2023-04-25T00:15:04;10.63;;;3.97;;
7160;SDS011;3622;53.576;9.978;2023-04-25T00:17:30;6.93;;;3.77;;
7160;SDS011;3622;53.576;9.978;2023-04-25T00:19:56;7.30;;;3.53;;
7160;SDS011;3622;53.576;9.978;2023-04-25T00:22:23;13.10;;;3.30;;
7160;SDS011;3622;53.576;9.978;2023-04-25T00:24:49;17.47;;;3.47;;
7160;SDS011;3622;53.576;9.978;2023-04-25T00:27:15;10.37;;;3.40;;
7160;SDS011;3622;53.576;9.978;2023-04-25T00:29:41;11.07;;;3.40;;
7160;SDS011;3622;53.576;9.978;2023-04-25T00:32:07;12.77;;;3.50;;
7160;SDS011;3622;53.576;9.978;2023-04-25T00:34:33;9.70;;;3.50;;
7160;SDS011;3622;53.576;9.978;2023-04-25T00:36:59;12.43;;;6.10;;
7160;SDS011;3622;53.576;9.978;2023-04-25T00:39:27;14.70;;;4.30;;
7160;SDS011;3622;53.576;9.978;2023-04-25T00:41:53;16.00;;;3.80;;
7160;SDS011;3622;53.576;9.978;2023-04-25T00:44:19;16.33;;;4.30;;
7160;SDS011;3622;53.576;9.978;2023-04-25T00:46:47;17.30;;;3.80;;
7160;SDS011;3622;53.576;9.978;2023-04-25T00:49:14;18.80;;;3.43;;
7160;SDS011;3622;53.576;9.978;2023-04-25T00:51:41;16.60;;;3.90;;
7160;SDS011;3622;53.576;9.978;2023-04-25T00:54:08;21.77;;;4.07;;
7160;SDS011;3622;53.576;9.978;2023-04-25T00:56:35;14.83;;;3.60;;
7160;SDS011;3622;53.576;9.978;2023-04-25T00:59:01;17.23;;;3.70;;
7160;SDS011;3622;53.576;9.978;2023-04-25T01:01:27;23.17;;;4.30;;
7160;SDS011;3622;53.576;9.978;2023-04-25T01:03:53;13.87;;;4.40;;
7160;SDS011;3622;53.576;9.978;2023-04-25T01:06:19;10.27;;;3.13;;
7160;SDS011;3622;53.576;9.978;2023-04-25T01:08:47;18.10;;;4.00;;
7160;SDS011;3622;53.576;9.978;2023-04-25T01:11:13;12.73;;;3.07;;
7160;SDS011;3622;53.576;9.978;2023-04-25T01:13:39;24.57;;;5.07;;
7160;SDS011;3622;53.576;9.978;2023-04-25T01:16:05;11.40;;;4.10;;
7160;SDS011;3622;53.576;9.978;2023-04-25T01:18:31;15.27;;;4.10;;
7160;SDS011;3622;53.576;9.978;2023-04-25T01:21:02;12.83;;;3.30;;
7160;SDS011;3622;53.576;9.978;2023-04-25T01:23:31;11.43;;;3.23;;
7160;SDS011;3622;53.576;9.978;2023-04-25T01:25:58;17.13;;;4.13;;
7160;SDS011;3622;53.576;9.978;2023-04-25T01:28:24;17.83;;;3.67;;
7160;SDS011;3622;53.576;9.978;2023-04-25T01:30:50;10.00;;;3.30;;
7160;SDS011;3622;53.576;9.978;2023-04-25T01:33:17;18.70;;;4.07;;
7160;SDS011;3622;53.576;9.978;2023-04-25T01:35:44;11.80;;;3.53;;
7160;SDS011;3622;53.576;9.978;2023-04-25T01:38:11;14.70;;;3.70;;
7160;SDS011;3622;53.576;9.978;2023-04-25T01:40:37;13.53;;;4.27;;
7160;SDS011;3622;53.576;9.978;2023-04-25T01:43:04;16.03;;;4.10;;
7160;SDS011;3622;53.576;9.978;2023-04-25T01:45:30;16.53;;;4.10;;
7160;SDS011;3622;53.576;9.978;2023-04-25T01:47:56;20.37;;;4.07;;
7160;SDS011;3622;53.576;9.978;2023-04-25T01:50:24;13.70;;;3.83;;
7160;SDS011;3622;53.576;9.978;2023-04-25T01:52:50;19.00;;;3.83;;
7160;SDS011;3622;53.576;9.978;2023-04-25T01:55:16;15.10;;;3.50;;
7160;SDS011;3622;53.576;9.978;2023-04-25T01:57:42;17.03;;;3.77;;
7160;SDS011;3622;53.576;9.978;2023-04-25T02:00:08;19.30;;;3.90;;
7160;SDS011;3622;53.576;9.978;2023-04-25T02:02:35;24.40;;;4.50;;
7160;SDS011;3622;53.576;9.978;2023-04-25T02:05:01;12.63;;;4.30;;
7160;SDS011;3622;53.576;9.978;2023-04-25T02:07:27;16.17;;;3.87;;
7160;SDS011;3622;53.576;9.978;2023-04-25T02:09:53;12.53;;;3.50;;
7160;SDS011;3622;53.576;9.978;2023-04-25T02:12:19;15.73;;;3.50;;
7160;SDS011;3622;53.576;9.978;2023-04-25T02:14:45;15.90;;;3.77;;
7160;SDS011;3622;53.576;9.978;2023-04-25T02:17:11;14.47;;;3.77;;
7160;SDS011;3622;53.576;9.978;2023-04-25T02:19:37;9.10;;;4.20;;
7160;SDS011;3622;53.576;9.978;2023-04-25T02:22:03;15.60;;;3.63;;
7160;SDS011;3622;53.576;9.978;2023-04-25T02:24:30;13.83;;;4.57;;
7160;SDS011;3622;53.576;9.978;2023-04-25T02:26:56;24.00;;;4.50;;
7160;SDS011;3622;53.576;9.978;2023-04-25T02:29:22;20.73;;;4.00;;
7160;SDS011;3622;53.576;9.978;2023-04-25T02:31:48;10.27;;;3.70;;
7160;SDS011;3622;53.576;9.978;2023-04-25T02:34:15;9.57;;;3.33;;
7160;SDS011;3622;53.576;9.978;2023-04-25T02:36:40;14.30;;;3.63;;
7160;SDS011;3622;53.576;9.978;2023-04-25T02:39:06;13.33;;;4.00;;
7160;SDS011;3622;53.576;9.978;2023-04-25T02:41:32;12.53;;;3.50;;
7160;SDS011;3622;53.576;9.978;2023-04-25T02:43:58;9.53;;;3.77;;
7160;SDS011;3622;53.576;9.978;2023-04-25T02:46:24;12.83;;;3.63;;
7160;SDS011;3622;53.576;9.978;2023-04-25T02:48:50;15.47;;;3.80;;
7160;SDS011;3622;53.576;9.978;2023-04-25T02:51:16;14.33;;;3.70;;
7160;SDS011;3622;53.576;9.978;2023-04-25T02:53:42;18.83;;;3.87;;
7160;SDS011;3622;53.576;9.978;2023-04-25T02:56:08;19.83;;;3.60;;
7160;SDS011;3622;53.576;9.978;2023-04-25T02:58:34;11.17;;;3.77;;
7160;SDS011;3622;53.576;9.978;2023-04-25T03:01:00;13.40;;;3.50;;
7160;SDS011;3622;53.576;9.978;2023-04-25T03:03:26;11.43;;;3.33;;
7160;SDS011;3622;53.576;9.978;2023-04-25T03:05:52;12.93;;;3.70;;
7160;SDS011;3622;53.576;9.978;2023-04-25T03:08:18;18.17;;;6.43;;
7160;SDS011;3622;53.576;9.978;2023-04-25T03:10:44;12.83;;;4.37;;
7160;SDS011;3622;53.576;9.978;2023-04-25T03:13:11;14.57;;;5.80;;
7160;SDS011;3622;53.576;9.978;2023-04-25T03:15:38;13.97;;;5.27;;
7160;SDS011;3622;53.576;9.978;2023-04-25T03:18:04;15.17;;;4.57;;
7160;SDS011;3622;53.576;9.978;2023-04-25T03:20:30;14.83;;;3.80;;
7160;SDS011;3622;53.576;9.978;2023-04-25T03:22:56;12.83;;;3.93;;
7160;SDS011;3622;53.576;9.978;2023-04-25T03:25:22;13.93;;;2.70;;
7160;SDS011;3622;53.576;9.978;2023-04-25T03:27:48;9.43;;;3.20;;
7160;SDS011;3622;53.576;9.978;2023-04-25T03:30:14;12.93;;;3.00;;
7160;SDS011;3622;53.576;9.978;2023-04-25T03:32:40;9.90;;;3.33;;
7160;SDS011;3622;53.576;9.978;2023-04-25T03:35:06;13.47;;;3.80;;
7160;SDS011;3622;53.576;9.978;2023-04-25T03:37:32;9.50;;;2.90;;
7160;SDS011;3622;53.576;9.978;2023-04-25T03:39:58;12.60;;;3.77;;
7160;SDS011;3622;53.576;9.978;2023-04-25T03:42:24;12.20;;;3.30;;
7160;SDS011;3622;53.576;9.978;2023-04-25T03:44:51;16.37;;;4.30;;
7160;SDS011;3622;53.576;9.978;2023-04-25T03:47:17;27.27;;;10.03;;
7160;SDS011;3622;53.576;9.978;2023-04-25T03:49:43;13.83;;;5.30;;
7160;SDS011;3622;53.576;9.978;2023-04-25T03:52:09;12.07;;;4.63;;
7160;SDS011;3622;53.576;9.978;2023-04-25T03:54:35;8.93;;;2.93;;
7160;SDS011;3622;53.576;9.978;2023-04-25T03:57:01;17.33;;;3.53;;
7160;SDS011;3622;53.576;9.978;2023-04-25T03:59:27;11.97;;;3.60;;
7160;SDS011;3622;53.576;9.978;2023-04-25T04:01:53;15.70;;;3.40;;
7160;SDS011;3622;53.576;9.978;2023-04-25T04:04:19;13.73;;;3.60;;
7160;SDS011;3622;53.576;9.978;2023-04-25T04:06:45;7.37;;;3.50;;
7160;SDS011;3622;53.576;9.978;2023-04-25T04:09:11;11.50;;;3.97;;
7160;SDS011;3622;53.576;9.978;2023-04-25T04:11:38;14.17;;;6.77;;
7160;SDS011;3622;53.576;9.978;2023-04-25T04:14:07;15.33;;;4.23;;
7160;SDS011;3622;53.576;9.978;2023-04-25T04:16:33;17.70;;;3.83;;
7160;SDS011;3622;53.576;9.978;2023-04-25T04:18:59;19.37;;;3.10;;
7160;SDS011;3622;53.576;9.978;2023-04-25T04:21:25;9.17;;;2.73;;
7160;SDS011;3622;53.576;9.978;2023-04-25T04:23:51;12.60;;;3.37;;
7160;SDS011;3622;53.576;9.978;2023-04-25T04:26:19;10.17;;;3.10;;
7160;SDS011;3622;53.576;9.978;2023-04-25T04:28:48;13.00;;;2.57;;
7160;SDS011;3622;53.576;9.978;2023-04-25T04:31:15;13.43;;;3.20;;
7160;SDS011;3622;53.576;9.978;2023-04-25T04:33:43;9.80;;;2.43;;
7160;SDS011;3622;53.576;9.978;2023-04-25T04:36:09;12.50;;;2.80;;
7160;SDS011;3622;53.576;9.978;2023-04-25T04:38:35;15.03;;;2.73;;
7160;SDS011;3622;53.576;9.978;2023-04-25T04:41:01;9.50;;;2.60;;
7160;SDS011;3622;53.576;9.978;2023-04-25T04:43:28;11.57;;;2.70;;
7160;SDS011;3622;53.576;9.978;2023-04-25T04:45:54;9.33;;;3.13;;
7160;SDS011;3622;53.576;9.978;2023-04-25T04:48:23;8.67;;;2.23;;
7160;SDS011;3622;53.576;9.978;2023-04-25T04:50:49;7.80;;;2.50;;
7160;SDS011;3622;53.576;9.978;2023-04-25T04:53:15;12.90;;;3.10;;
7160;SDS011;3622;53.576;9.978;2023-04-25T04:55:41;8.67;;;3.03;;
7160;SDS011;3622;53.576;9.978;2023-04-25T04:58:07;11.83;;;2.70;;
7160;SDS011;3622;53.576;9.978;2023-04-25T05:00:34;7.63;;;2.40;;
7160;SDS011;3622;53.576;9.978;2023-04-25T05:03:00;9.83;;;2.37;;
7160;SDS011;3622;53.576;9.978;2023-04-25T05:05:25;8.93;;;3.23;;
7160;SDS011;3622;53.576;9.978;2023-04-25T05:07:51;13.73;;;3.60;;
7160;SDS011;3622;53.576;9.978;2023-04-25T05:10:18;8.50;;;3.17;;
7160;SDS011;3622;53.576;9.978;2023-04-25T05:12:45;13.60;;;3.10;;
7160;SDS011;3622;53.576;9.978;2023-04-25T05:15:11;11.03;;;2.97;;
7160;SDS011;3622;53.576;9.978;2023-04-25T05:17:37;7.33;;;2.70;;
7160;SDS011;3622;53.576;9.978;2023-04-25T05:20:04;8.63;;;2.77;;
7160;SDS011;3622;53.576;9.978;2023-04-25T05:22:30;7.43;;;2.40;;
7160;SDS011;3622;53.576;9.978;2023-04-25T05:24:56;16.67;;;3.80;;
7160;SDS011;3622;53.576;9.978;2023-04-25T05:27:22;9.87;;;2.97;;
7160;SDS011;3622;53.576;9.978;2023-04-25T05:29:48;16.60;;;2.83;;
7160;SDS011;3622;53.576;9.978;2023-04-25T05:32:14;4.77;;;2.50;;
7160;SDS011;3622;53.576;9.978;2023-04-25T05:34:40;8.40;;;2.93;;
7160;SDS011;3622;53.576;9.978;2023-04-25T05:37:06;7.73;;;2.77;;
7160;SDS011;3622;53.576;9.978;2023-04-25T05:39:32;4.93;;;2.20;;
7160;SDS011;3622;53.576;9.978;2023-04-25T05:41:58;9.80;;;3.07;;
7160;SDS011;3622;53.576;9.978;2023-04-25T05:44:26;9.43;;;2.47;;
7160;SDS011;3622;53.576;9.978;2023-04-25T05:46:52;9.80;;;3.33;;
7160;SDS011;3622;53.576;9.978;2023-04-25T05:49:18;11.90;;;3.07;;
7160;SDS011;3622;53.576;9.978;2023-04-25T05:51:44;8.73;;;2.70;;
7160;SDS011;3622;53.576;9.978;2023-04-25T05:54:10;8.30;;;2.60;;
7160;SDS011;3622;53.576;9.978;2023-04-25T05:56:36;10.30;;;2.73;;
7160;SDS011;3622;53.576;9.978;2023-04-25T05:59:02;14.03;;;2.70;;
7160;SDS011;3622;53.576;9.978;2023-04-25T06:01:28;8.37;;;2.30;;
7160;SDS011;3622;53.576;9.978;2023-04-25T06:03:54;8.17;;;2.50;;
7160;SDS011;3622;53.576;9.978;2023-04-25T06:06:20;11.87;;;2.97;;
7160;SDS011;3622;53.576;9.978;2023-04-25T06:08:46;8.80;;;2.30;;
7160;SDS011;3622;53.576;9.978;2023-04-25T06:11:12;8.73;;;3.40;;
7160;SDS011;3622;53.576;9.978;2023-04-25T06:13:38;11.13;;;3.10;;
7160;SDS011;3622;53.576;9.978;2023-04-25T06:16:04;10.90;;;2.53;;
7160;SDS011;3622;53.576;9.978;2023-04-25T06:18:30;11.37;;;2.67;;
7160;SDS011;3622;53.576;9.978;2023-04-25T06:20:56;7.53;;;2.70;;
7160;SDS011;3622;53.576;9.978;2023-04-25T06:23:22;10.30;;;3.03;;
7160;SDS011;3622;53.576;9.978;2023-04-25T06:25:48;5.90;;;2.70;;
7160;SDS011;3622;53.576;9.978;2023-04-25T06:28:14;13.63;;;3.10;;
7160;SDS011;3622;53.576;9.978;2023-04-25T06:30:40;5.70;;;2.57;;
7160;SDS011;3622;53.576;9.978;2023-04-25T06:33:06;7.93;;;2.93;;
7160;SDS011;3622;53.576;9.978;2023-04-25T06:35:33;9.43;;;2.60;;
7160;SDS011;3622;53.576;9.978;2023-04-25T06:37:59;5.27;;;2.03;;
7160;SDS011;3622;53.576;9.978;2023-04-25T06:40:25;7.67;;;2.30;;
7160;SDS011;3622;53.576;9.978;2023-04-25T06:42:51;8.70;;;2.00;;
7160;SDS011;3622;53.576;9.978;2023-04-25T06:45:17;10.10;;;2.80;;
7160;SDS011;3622;53.576;9.978;2023-04-25T06:47:43;10.53;;;3.30;;
7160;SDS011;3622;53.576;9.978;2023-04-25T06:50:09;8.83;;;2.63;;
7160;SDS011;3622;53.576;9.978;2023-04-25T06:52:35;2.80;;;1.90;;
7160;SDS011;3622;53.576;9.978;2023-04-25T06:55:01;4.00;;;2.10;;
7160;SDS011;3622;53.576;9.978;2023-04-25T06:57:28;5.37;;;2.47;;
7160;SDS011;3622;53.576;9.978;2023-04-25T06:59:54;7.93;;;2.47;;
7160;SDS011;3622;53.576;9.978;2023-04-25T07:02:20;9.03;;;2.37;;
7160;SDS011;3622;53.576;9.978;2023-04-25T07:04:47;7.87;;;2.07;;
7160;SDS011;3622;53.576;9.978;2023-04-25T07:07:13;8.77;;;2.60;;
7160;SDS011;3622;53.576;9.978;2023-04-25T07:09:39;5.60;;;2.10;;
7160;SDS011;3622;53.576;9.978;2023-04-25T07:12:05;4.87;;;2.07;;
7160;SDS011;3622;53.576;9.978;2023-04-25T07:14:31;4.50;;;1.87;;
7160;SDS011;3622;53.576;9.978;2023-04-25T07:16:57;10.20;;;1.77;;
7160;SDS011;3622;53.576;9.978;2023-04-25T07:19:23;3.60;;;1.93;;
7160;SDS011;3622;53.576;9.978;2023-04-25T07:21:51;3.87;;;1.80;;
7160;SDS011;3622;53.576;9.978;2023-04-25T07:24:17;3.90;;;1.70;;
7160;SDS011;3622;53.576;9.978;2023-04-25T07:26:43;2.07;;;1.43;;
7160;SDS011;3622;53.576;9.978;2023-04-25T07:29:09;7.33;;;1.87;;
7160;SDS011;3622;53.576;9.978;2023-04-25T07:31:35;4.70;;;1.50;;
7160;SDS011;3622;53.576;9.978;2023-04-25T07:34:01;6.20;;;1.97;;
7160;SDS011;3622;53.576;9.978;2023-04-25T07:36:27;4.60;;;1.70;;
7160;SDS011;3622;53.576;9.978;2023-04-25T07:38:53;3.10;;;1.70;;
7160;SDS011;3622;53.576;9.978;2023-04-25T07:41:19;7.70;;;1.63;;
7160;SDS011;3622;53.576;9.978;2023-04-25T07:43:45;2.80;;;1.70;;
7160;SDS011;3622;53.576;9.978;2023-04-25T07:46:11;7.47;;;1.47;;
7160;SDS011;3622;53.576;9.978;2023-04-25T07:48:37;5.33;;;1.30;;
7160;SDS011;3622;53.576;9.978;2023-04-25T07:51:03;5.37;;;1.50;;
7160;SDS011;3622;53.576;9.978;2023-04-25T07:53:30;9.47;;;1.73;;
7160;SDS011;3622;53.576;9.978;2023-04-25T07:55:56;5.90;;;2.20;;
7160;SDS011;3622;53.576;9.978;2023-04-25T07:58:22;8.90;;;1.73;;
7160;SDS011;3622;53.576;9.978;2023-04-25T08:00:48;7.93;;;1.87;;
7160;SDS011;3622;53.576;9.978;2023-04-25T08:03:14;6.70;;;2.27;;
7160;SDS011;3622;53.576;9.978;2023-04-25T08:05:40;3.67;;;2.13;;
7160;SDS011;3622;53.576;9.978;2023-04-25T08:08:06;8.87;;;1.73;;
7160;SDS011;3622;53.576;9.978;2023-04-25T08:10:33;2.53;;;1.50;;
7160;SDS011;3622;53.576;9.978;2023-04-25T08:12:59;9.97;;;2.23;;
7160;SDS011;3622;53.576;9.978;2023-04-25T08:15:25;4.00;;;1.33;;
7160;SDS011;3622;53.576;9.978;2023-04-25T08:17:51;3.50;;;1.70;;
7160;SDS011;3622;53.576;9.978;2023-04-25T08:20:17;4.50;;;1.73;;
7160;SDS011;3622;53.576;9.978;2023-04-25T08:22:43;3.93;;;1.57;;
7160;SDS011;3622;53.576;9.978;2023-04-25T08:25:09;10.73;;;2.10;;
7160;SDS011;3622;53.576;9.978;2023-04-25T08:27:35;4.50;;;1.77;;
7160;SDS011;3622;53.576;9.978;2023-04-25T08:30:02;6.00;;;1.50;;
7160;SDS011;3622;53.576;9.978;2023-04-25T08:32:28;5.03;;;2.07;;
7160;SDS011;3622;53.576;9.978;2023-04-25T08:34:54;11.50;;;1.60;;
7160;SDS011;3622;53.576;9.978;2023-04-25T08:37:20;3.10;;;1.17;;
7160;SDS011;3622;53.576;9.978;2023-04-25T08:39:46;6.70;;;2.47;;
7160;SDS011;3622;53.576;9.978;2023-04-25T08:42:17;3.83;;;1.40;;
7160;SDS011;3622;53.576;9.978;2023-04-25T08:44:44;10.57;;;2.03;;
7160;SDS011;3622;53.576;9.978;2023-04-25T08:47:11;3.20;;;1.13;;
7160;SDS011;3622;53.576;9.978;2023-04-25T08:49:37;3.33;;;1.20;;
7160;SDS011;3622;53.576;9.978;2023-04-25T08:52:04;2.60;;;1.43;;
7160;SDS011;3622;53.576;9.978;2023-04-25T08:54:31;6.20;;;1.40;;
7160;SDS011;3622;53.576;9.978;2023-04-25T08:56:59;3.13;;;1.47;;
7160;SDS011;3622;53.576;9.978;2023-04-25T08:59:29;9.80;;;1.60;;
7160;SDS011;3622;53.576;9.978;2023-04-25T09:01:55;3.80;;;1.20;;
7160;SDS011;3622;53.576;9.978;2023-04-25T09:04:21;9.43;;;1.80;;
7160;SDS011;3622;53.576;9.978;2023-04-25T09:06:47;3.80;;;1.20;;
7160;SDS011;3622;53.576;9.978;2023-04-25T09:09:13;3.53;;;1.40;;
7160;SDS011;3622;53.576;9.978;2023-04-25T09:11:39;1.90;;;1.30;;
7160;SDS011;3622;53.576;9.978;2023-04-25T09:19:29;2.13;;;1.00;;
7160;SDS011;3622;53.576;9.978;2023-04-25T09:21:56;3.37;;;1.43;;
7160;SDS011;3622;53.576;9.978;2023-04-25T09:24:41;1.47;;;1.07;;
7160;SDS011;3622;53.576;9.978;2023-04-25T09:27:09;6.60;;;1.70;;
7160;SDS011;3622;53.576;9.978;2023-04-25T09:29:39;6.90;;;1.40;;
7160;SDS011;3622;53.576;9.978;2023-04-25T09:34:41;13.50;;;1.70;;
7160;SDS011;3622;53.576;9.978;2023-04-25T09:37:10;7.50;;;1.53;;
7160;SDS011;3622;53.576;9.978;2023-04-25T09:39:37;5.10;;;1.60;;
7160;SDS011;3622;53.576;9.978;2023-04-25T09:42:03;5.27;;;1.77;;
7160;SDS011;3622;53.576;9.978;2023-04-25T09:44:29;3.00;;;1.30;;
7160;SDS011;3622;53.576;9.978;2023-04-25T09:46:55;3.30;;;1.23;;
7160;SDS011;3622;53.576;9.978;2023-04-25T09:49:22;6.63;;;2.43;;
7160;SDS011;3622;53.576;9.978;2023-04-25T09:51:54;6.57;;;1.30;;
7160;SDS011;3622;53.576;9.978;2023-04-25T09:54:21;6.63;;;2.00;;
7160;SDS011;3622;53.576;9.978;2023-04-25T09:56:48;6.30;;;4.57;;
7160;SDS011;3622;53.576;9.978;2023-04-25T09:59:14;2.80;;;2.10;;
7160;SDS011;3622;53.576;9.978;2023-04-25T10:01:40;7.70;;;1.67;;
7160;SDS011;3622;53.576;9.978;2023-04-25T10:04:06;3.30;;;1.30;;
7160;SDS011;3622;53.576;9.978;2023-04-25T10:06:36;3.43;;;1.13;;
7160;SDS011;3622;53.576;9.978;2023-04-25T10:09:02;4.53;;;1.60;;
7160;SDS011;3622;53.576;9.978;2023-04-25T10:11:29;4.10;;;2.40;;
7160;SDS011;3622;53.576;9.978;2023-04-25T10:13:56;16.93;;;3.57;;
7160;SDS011;3622;53.576;9.978;2023-04-25T10:16:22;2.33;;;1.67;;
7160;SDS011;3622;53.576;9.978;2023-04-25T10:18:48;4.07;;;1.40;;
7160;SDS011;3622;53.576;9.978;2023-04-25T10:21:15;5.13;;;0.73;;
7160;SDS011;3622;53.576;9.978;2023-04-25T10:23:41;3.10;;;0.90;;
7160;SDS011;3622;53.576;9.978;2023-04-25T10:26:08;3.77;;;1.43;;
7160;SDS011;3622;53.576;9.978;2023-04-25T10:28:56;2.77;;;1.33;;
7160;SDS011;3622;53.576;9.978;2023-04-25T10:31:22;6.00;;;1.23;;
7160;SDS011;3622;53.576;9.978;2023-04-25T10:33:49;7.57;;;1.47;;
7160;SDS011;3622;53.576;9.978;2023-04-25T10:36:17;6.00;;;2.00;;
7160;SDS011;3622;53.576;9.978;2023-04-25T10:38:43;5.83;;;1.00;;
7160;SDS011;3622;53.576;9.978;2023-04-25T10:41:10;1.63;;;1.40;;
7160;SDS011;3622;53.576;9.978;2023-04-25T10:46:03;2.00;;;1.03;;
7160;SDS011;3622;53.576;9.978;2023-04-25T10:48:38;4.00;;;1.33;;
7160;SDS011;3622;53.576;9.978;2023-04-25T10:51:09;5.07;;;1.50;;
7160;SDS011;3622;53.576;9.978;2023-04-25T10:53:35;6.20;;;1.43;;
7160;SDS011;3622;53.576;9.978;2023-04-25T10:58:41;5.67;;;1.07;;
7160;SDS011;3622;53.576;9.978;2023-04-25T11:01:07;3.20;;;1.33;;
7160;SDS011;3622;53.576;9.978;2023-04-25T11:03:37;5.73;;;1.10;;
7160;SDS011;3622;53.576;9.978;2023-04-25T11:06:04;3.50;;;1.50;;
7160;SDS011;3622;53.576;9.978;2023-04-25T11:08:44;2.53;;;1.40;;
7160;SDS011;3622;53.576;9.978;2023-04-25T11:11:13;7.97;;;2.00;;
7160;SDS011;3622;53.576;9.978;2023-04-25T11:13:39;3.20;;;1.10;;
7160;SDS011;3622;53.576;9.978;2023-04-25T11:16:08;5.17;;;1.60;;
7160;SDS011;3622;53.576;9.978;2023-04-25T11:18:34;5.03;;;1.23;;
7160;SDS011;3622;53.576;9.978;2023-04-25T11:21:00;3.03;;;1.60;;
7160;SDS011;3622;53.576;9.978;2023-04-25T11:23:28;2.50;;;1.33;;
7160;SDS011;3622;53.576;9.978;2023-04-25T11:25:55;3.27;;;1.37;;
7160;SDS011;3622;53.576;9.978;2023-04-25T11:28:22;7.40;;;1.10;;
7160;SDS011;3622;53.576;9.978;2023-04-25T11:30:48;5.53;;;2.50;;
7160;SDS011;3622;53.576;9.978;2023-04-25T11:33:18;1.87;;;1.20;;
7160;SDS011;3622;53.576;9.978;2023-04-25T11:35:48;5.63;;;1.27;;
7160;SDS011;3622;53.576;9.978;2023-04-25T11:38:14;4.37;;;1.13;;
7160;SDS011;3622;53.576;9.978;2023-04-25T11:40:40;4.13;;;1.13;;
7160;SDS011;3622;53.576;9.978;2023-04-25T11:43:06;5.93;;;1.60;;
7160;SDS011;3622;53.576;9.978;2023-04-25T11:45:32;1.50;;;0.80;;
7160;SDS011;3622;53.576;9.978;2023-04-25T11:47:58;1.63;;;0.77;;
7160;SDS011;3622;53.576;9.978;2023-04-25T11:50:24;3.00;;;1.27;;
7160;SDS011;3622;53.576;9.978;2023-04-25T11:52:50;2.97;;;1.03;;
7160;SDS011;3622;53.576;9.978;2023-04-25T11:55:17;3.53;;;0.93;;
7160;SDS011;3622;53.576;9.978;2023-04-25T11:57:44;4.27;;;0.83;;
7160;SDS011;3622;53.576;9.978;2023-04-25T12:00:17;4.60;;;1.40;;
7160;SDS011;3622;53.576;9.978;2023-04-25T12:02:44;5.93;;;1.40;;
7160;SDS011;3622;53.576;9.978;2023-04-25T12:05:11;8.53;;;1.30;;
7160;SDS011;3622;53.576;9.978;2023-04-25T12:07:37;5.50;;;1.30;;
7160;SDS011;3622;53.576;9.978;2023-04-25T12:10:10;4.00;;;1.13;;
7160;SDS011;3622;53.576;9.978;2023-04-25T12:12:37;4.23;;;1.30;;
7160;SDS011;3622;53.576;9.978;2023-04-25T12:17:49;0.83;;;0.60;;
7160;SDS011;3622;53.576;9.978;2023-04-25T12:20:16;1.60;;;0.80;;
7160;SDS011;3622;53.576;9.978;2023-04-25T12:22:46;2.30;;;1.03;;
7160;SDS011;3622;53.576;9.978;2023-04-25T12:25:13;1.10;;;1.00;;
7160;SDS011;3622;53.576;9.978;2023-04-25T12:27:39;2.80;;;0.80;;
7160;SDS011;3622;53.576;9.978;2023-04-25T12:30:09;2.40;;;1.13;;
7160;SDS011;3622;53.576;9.978;2023-04-25T12:32:35;4.13;;;0.90;;
7160;SDS011;3622;53.576;9.978;2023-04-25T12:35:02;4.17;;;0.80;;
7160;SDS011;3622;53.576;9.978;2023-04-25T12:37:28;1.93;;;0.70;;
7160;SDS011;3622;53.576;9.978;2023-04-25T12:39:55;4.10;;;1.17;;
7160;SDS011;3622;53.576;9.978;2023-04-25T12:42:21;3.20;;;0.73;;
7160;SDS011;3622;53.576;9.978;2023-04-25T12:44:47;4.07;;;1.10;;
7160;SDS011;3622;53.576;9.978;2023-04-25T12:47:13;5.23;;;1.77;;
7160;SDS011;3622;53.576;9.978;2023-04-25T12:49:39;2.50;;;0.83;;
7160;SDS011;3622;53.576;9.978;2023-04-25T12:52:05;2.50;;;0.63;;
7160;SDS011;3622;53.576;9.978;2023-04-25T12:54:31;8.00;;;2.10;;
7160;SDS011;3622;53.576;9.978;2023-04-25T12:56:57;3.97;;;1.87;;
7160;SDS011;3622;53.576;9.978;2023-04-25T12:59:24;6.60;;;1.57;;
7160;SDS011;3622;53.576;9.978;2023-04-25T13:01:50;2.30;;;1.03;;
7160;SDS011;3622;53.576;9.978;2023-04-25T13:04:15;3.33;;;2.40;;
7160;SDS011;3622;53.576;9.978;2023-04-25T13:06:42;4.70;;;1.83;;
7160;SDS011;3622;53.576;9.978;2023-04-25T13:09:08;5.47;;;1.97;;
7160;SDS011;3622;53.576;9.978;2023-04-25T13:11:34;17.37;;;1.53;;
7160;SDS011;3622;53.576;9.978;2023-04-25T13:14:01;3.90;;;2.20;;
7160;SDS011;3622;53.576;9.978;2023-04-25T13:16:27;3.93;;;1.83;;
7160;SDS011;3622;53.576;9.978;2023-04-25T13:18:53;2.63;;;1.80;;
7160;SDS011;3622;53.576;9.978;2023-04-25T13:21:20;1.87;;;1.10;;
7160;SDS011;3622;53.576;9.978;2023-04-25T13:23:46;2.50;;;1.77;;
7160;SDS011;3622;53.576;9.978;2023-04-25T13:26:12;3.27;;;1.20;;
7160;SDS011;3622;53.576;9.978;2023-04-25T13:28:38;4.80;;;1.10;;
7160;SDS011;3622;53.576;9.978;2023-04-25T13:31:05;4.70;;;1.77;;
7160;SDS011;3622;53.576;9.978;2023-04-25T13:33:31;2.20;;;1.47;;
7160;SDS011;3622;53.576;9.978;2023-04-25T13:35:57;5.77;;;2.23;;
7160;SDS011;3622;53.576;9.978;2023-04-25T13:38:23;2.20;;;1.57;;
7160;SDS011;3622;53.576;9.978;2023-04-25T13:40:50;6.90;;;1.47;;
7160;SDS011;3622;53.576;9.978;2023-04-25T13:43:19;6.17;;;2.27;;
7160;SDS011;3622;53.576;9.978;2023-04-25T13:45:46;3.67;;;1.40;;
7160;SDS011;3622;53.576;9.978;2023-04-25T13:48:12;8.23;;;1.60;;
7160;SDS011;3622;53.576;9.978;2023-04-25T13:50:38;4.20;;;1.10;;
7160;SDS011;3622;53.576;9.978;2023-04-25T13:53:04;2.90;;;1.33;;
7160;SDS011;3622;53.576;9.978;2023-04-25T13:55:30;6.10;;;1.50;;
7160;SDS011;3622;53.576;9.978;2023-04-25T13:57:56;4.17;;;1.10;;
7160;SDS011;3622;53.576;9.978;2023-04-25T14:00:22;2.33;;;1.40;;
7160;SDS011;3622;53.576;9.978;2023-04-25T14:02:48;9.67;;;1.20;;
7160;SDS011;3622;53.576;9.978;2023-04-25T14:05:15;1.47;;;1.30;;
7160;SDS011;3622;53.576;9.978;2023-04-25T14:07:41;5.40;;;1.50;;
7160;SDS011;3622;53.576;9.978;2023-04-25T14:10:07;3.47;;;1.23;;
7160;SDS011;3622;53.576;9.978;2023-04-25T14:12:33;7.20;;;1.50;;
7160;SDS011;3622;53.576;9.978;2023-04-25T14:14:59;2.40;;;1.53;;
7160;SDS011;3622;53.576;9.978;2023-04-25T14:17:25;4.07;;;1.67;;
7160;SDS011;3622;53.576;9.978;2023-04-25T14:19:52;6.67;;;1.67;;
7160;SDS011;3622;53.576;9.978;2023-04-25T14:22:18;2.13;;;1.50;;
7160;SDS011;3622;53.576;9.978;2023-04-25T14:24:44;6.20;;;1.70;;
7160;SDS011;3622;53.576;9.978;2023-04-25T14:27:10;9.03;;;1.50;;
7160;SDS011;3622;53.576;9.978;2023-04-25T14:29:36;5.07;;;1.67;;
7160;SDS011;3622;53.576;9.978;2023-04-25T14:32:03;2.47;;;1.33;;
7160;SDS011;3622;53.576;9.978;2023-04-25T14:34:30;6.97;;;1.37;;
7160;SDS011;3622;53.576;9.978;2023-04-25T14:36:56;3.67;;;1.17;;
7160;SDS011;3622;53.576;9.978;2023-04-25T14:39:22;3.23;;;1.20;;
7160;SDS011;3622;53.576;9.978;2023-04-25T14:41:48;7.90;;;1.03;;
7160;SDS011;3622;53.576;9.978;2023-04-25T14:44:14;4.77;;;1.00;;
7160;SDS011;3622;53.576;9.978;2023-04-25T14:46:40;3.40;;;1.20;;
7160;SDS011;3622;53.576;9.978;2023-04-25T14:49:06;1.50;;;1.10;;
7160;SDS011;3622;53.576;9.978;2023-04-25T14:51:32;1.10;;;0.90;;
7160;SDS011;3622;53.576;9.978;2023-04-25T14:53:58;2.07;;;1.00;;
7160;SDS011;3622;53.576;9.978;2023-04-25T14:56:24;4.20;;;0.80;;
7160;SDS011;3622;53.576;9.978;2023-04-25T14:58:50;3.77;;;1.53;;
7160;SDS011;3622;53.576;9.978;2023-04-25T15:01:16;4.97;;;0.80;;
7160;SDS011;3622;53.576;9.978;2023-04-25T15:03:42;3.47;;;0.93;;
7160;SDS011;3622;53.576;9.978;2023-04-25T15:06:08;7.03;;;1.40;;
7160;SDS011;3622;53.576;9.978;2023-04-25T15:08:34;2.60;;;1.30;;
7160;SDS011;3622;53.576;9.978;2023-04-25T15:11:01;4.60;;;1.03;;
7160;SDS011;3622;53.576;9.978;2023-04-25T15:13:27;2.50;;;1.30;;
7160;SDS011;3622;53.576;9.978;2023-04-25T15:15:53;5.80;;;2.00;;
7160;SDS011;3622;53.576;9.978;2023-04-25T15:18:20;4.70;;;1.20;;
7160;SDS011;3622;53.576;9.978;2023-04-25T15:20:47;7.13;;;1.47;;